Valley Springs, South Dakota
Current Conditions -  °F | °C
As of 10:15 AM on Sunday 23 Nov 2014 (Local Time) from KLYV Reporting Station
Drizzle Drizzle  
Wind Chill:   Ceiling: 5000
Heat Index:   Visibility: 7mi
Dew Point:   Wind: 14mph
Humidity: 87%   Direction: 310°NW
Pressure: 29.51"   Gusts: 20mph
Location:  43.58°N, 96.47°W
Report Text: KLYV 231615Z AUTO 31012G17KT 7SM DZ OVC050 05/03 A2951 RMK AO2
Loading
Personal Weather Stations






























Interactive Weather Map New forecast layout! Learn more

10-Day Weather Forecast

Advertisements
Track Severe Weather on mobile